Time;durP1;ratioP1;P1;durP2;ratioP2;P2;SDS_P1;SDS_P2;PMS_P1;PMS_P2;Temp;Humidity;BMP_temperature;BMP_pressure;BME280_temperature;BME280_humidity;BME280_pressure;Samples;Min_cycle;Max_cycle;Signal;HPM_P1;HPM_P2
2021/12/03 00:01:24;;;;;;;;;0.25;0.25;;;;;3.62;68.68;101158.25;5083292;27;45424;-83
2021/12/03 00:03:49;;;;;;;;;0.00;0.00;;;;;3.21;69.12;101096.44;5082748;27;45451;-83
2021/12/03 00:06:16;;;;;;;;;1.00;0.00;;;;;3.27;68.85;101099.28;5083033;27;45313;-83
2021/12/03 00:08:42;;;;;;;;;0.00;0.00;;;;;3.27;69.02;101094.13;5082414;27;45613;-82
2021/12/03 00:11:10;;;;;;;;;0.00;0.00;;;;;3.34;69.43;101094.41;5083096;27;45328;-82
2021/12/03 00:13:36;;;;;;;;;0.25;0.25;;;;;3.71;69.12;101160.41;5082907;27;45413;-82
2021/12/03 00:16:03;;;;;;;;;0.00;0.00;;;;;3.32;69.34;101102.06;5083470;27;45294;-81
2021/12/03 00:18:29;;;;;;;;;1.00;1.00;;;;;3.76;68.68;101181.16;5081205;27;45548;-82
2021/12/03 00:20:56;;;;;;;;;1.75;0.00;;;;;3.25;69.25;101106.03;5082671;27;45471;-82
2021/12/03 00:23:25;;;;;;;;;1.33;0.00;;;;;3.36;69.04;101108.22;5082696;27;45369;-81
2021/12/03 00:25:51;;;;;;;;;0.00;0.00;;;;;3.00;68.89;101052.63;5085399;27;45318;-82
2021/12/03 00:28:16;;;;;;;;;0.00;0.00;;;;;2.98;69.79;101052.56;5085599;27;45398;-82
2021/12/03 00:30:42;;;;;;;;;0.25;0.25;;;;;3.02;69.08;101064.75;5080973;28;45417;-82
2021/12/03 00:33:08;;;;;;;;;0.00;0.00;;;;;3.09;69.39;101073.59;5082407;28;45647;-82
2021/12/03 00:35:34;;;;;;;;;0.50;0.50;;;;;2.99;69.17;101050.84;5083123;28;45377;-83
2021/12/03 00:38:00;;;;;;;;;0.00;0.00;;;;;3.19;68.82;101082.63;5081224;28;48583;-82
2021/12/03 00:40:30;;;;;;;;;0.00;0.00;;;;;3.57;69.65;101149.47;5082850;28;45479;-82
2021/12/03 00:42:57;;;;;;;;;1.50;1.00;;;;;3.79;68.44;101173.56;5084256;28;45381;-82
2021/12/03 00:45:22;;;;;;;;;0.00;0.00;;;;;3.35;69.19;101112.50;5081363;28;45556;-82
2021/12/03 00:47:48;;;;;;;;;2.50;2.00;;;;;2.84;69.72;101036.50;5079804;28;47785;-82
2021/12/03 00:50:18;;;;;;;;;0.00;0.00;;;;;2.96;69.70;101043.88;5081938;27;45505;-82
2021/12/03 00:52:44;;;;;;;;;0.00;0.00;;;;;2.91;68.91;101040.25;5082413;27;45357;-82
2021/12/03 00:55:10;;;;;;;;;1.25;1.00;;;;;2.60;68.98;100995.16;5081079;28;45437;-83
2021/12/03 00:57:36;;;;;;;;;1.00;1.00;;;;;3.03;69.11;101068.19;5082061;28;46148;-82
2021/12/03 01:00:06;;;;;;;;;1.50;1.00;;;;;2.49;69.36;100982.69;5082223;28;45384;-82
2021/12/03 01:02:31;;;;;;;;;2.00;2.00;;;;;3.24;68.86;101129.13;5081423;28;45355;-82
2021/12/03 01:04:56;;;;;;;;;1.75;0.00;;;;;2.84;68.93;101079.31;5082612;28;45435;-81
2021/12/03 01:07:22;;;;;;;;;0.50;0.50;;;;;3.59;68.81;101188.16;5080513;28;46396;-82
2021/12/03 01:09:47;;;;;;;;;0.50;0.50;;;;;2.90;69.62;101071.88;5082254;27;45323;-82
2021/12/03 01:12:13;;;;;;;;;0.00;0.00;;;;;2.96;69.10;101105.63;5082104;27;45822;-81
2021/12/03 01:14:39;;;;;;;;;1.00;1.00;;;;;2.22;70.00;100972.88;5082356;27;45531;-82
2021/12/03 01:17:06;;;;;;;;;0.00;0.00;;;;;3.04;69.00;101122.25;5081754;27;46084;-82
2021/12/03 01:19:31;;;;;;;;;1.25;0.00;;;;;3.19;69.61;101146.97;5081691;27;45478;-82
2021/12/03 01:21:57;;;;;;;;;1.00;0.00;;;;;2.70;69.74;101053.88;5081851;27;45304;-82
2021/12/03 01:24:22;;;;;;;;;2.75;2.75;;;;;3.12;69.68;101132.03;5080691;28;45276;-82
2021/12/03 01:26:53;;;;;;;;;1.00;1.00;;;;;3.68;69.57;101204.03;5081543;27;46328;-82
2021/12/03 01:29:19;;;;;;;;;0.00;0.00;;;;;3.64;69.66;101195.28;5081777;28;45455;-83
2021/12/03 01:31:44;;;;;;;;;1.25;1.00;;;;;3.15;69.03;101109.91;5080172;28;45519;-83
2021/12/03 01:34:10;;;;;;;;;0.25;0.25;;;;;2.71;69.29;101021.31;5080489;28;45564;-82
2021/12/03 01:36:35;;;;;;;;;0.00;0.00;;;;;3.31;69.84;101127.72;5081461;28;45394;-82
2021/12/03 01:39:01;;;;;;;;;0.25;0.25;;;;;2.96;68.63;101051.59;5081166;27;45168;-82
2021/12/03 01:41:27;;;;;;;;;0.00;0.00;;;;;3.90;69.32;101217.84;5081736;27;45388;-82
2021/12/03 01:43:59;;;;;;;;;0.25;0.00;;;;;3.93;69.61;101207.69;5081850;28;45543;-82
2021/12/03 01:46:25;;;;;;;;;1.50;1.00;;;;;3.16;69.02;101083.34;5079451;28;45295;-83
2021/12/03 01:48:50;;;;;;;;;0.25;0.00;;;;;3.47;69.68;101137.91;5079899;28;45279;-83
2021/12/03 01:51:16;;;;;;;;;1.00;0.00;;;;;3.98;68.70;101201.03;5081696;27;45582;-82
2021/12/03 01:53:41;;;;;;;;;1.00;1.00;;;;;3.52;69.01;101141.53;5080325;28;45376;-82
2021/12/03 01:56:12;;;;;;;;;0.75;0.75;;;;;3.14;68.68;101077.28;5081268;27;46000;-82
2021/12/03 01:58:39;;;;;;;;;0.25;0.25;;;;;3.74;69.26;101190.53;5079699;28;46054;-82
2021/12/03 02:01:08;;;;;;;;;2.00;1.00;;;;;3.90;69.39;101225.56;5081360;27;45339;-83
2021/12/03 02:03:35;;;;;;;;;2.00;0.00;;;;;3.09;68.56;101080.47;5080489;28;45636;-83
2021/12/03 02:06:03;;;;;;;;;3.00;1.75;;;;;3.54;69.12;101157.94;5083511;27;46082;-82
2021/12/03 02:08:29;;;;;;;;;1.50;0.25;;;;;3.51;68.71;101170.69;5081433;27;45515;-82
2021/12/03 02:10:55;;;;;;;;;1.50;1.50;;;;;3.83;68.63;101218.41;5079896;28;45182;-83
2021/12/03 02:13:20;;;;;;;;;0.75;0.75;;;;;3.22;69.49;101111.03;5081515;27;45317;-82
2021/12/03 02:15:46;;;;;;;;;3.00;2.00;;;;;3.62;69.06;101167.72;5081247;27;45359;-83
2021/12/03 02:18:14;;;;;;;;;1.25;1.25;;;;;3.81;69.12;101205.44;5081093;27;45442;-83
2021/12/03 02:20:47;;;;;;;;;1.25;0.00;;;;;2.76;69.01;101015.56;5082098;28;45420;-83
2021/12/03 02:23:14;;;;;;;;;0.00;0.00;;;;;3.53;69.69;101153.59;5082190;27;45522;-83
2021/12/03 02:25:41;;;;;;;;;1.50;1.50;;;;;2.86;69.15;101018.56;5079606;28;45487;-83
2021/12/03 02:28:07;;;;;;;;;0.50;0.50;;;;;3.87;68.92;101186.81;5081505;27;45374;-83
2021/12/03 02:30:33;;;;;;;;;0.50;0.50;;;;;3.95;69.13;101208.59;5081139;28;45354;-83
2021/12/03 02:32:59;;;;;;;;;2.00;1.50;;;;;3.29;68.63;101076.19;5079822;28;45392;-82
2021/12/03 02:35:24;;;;;;;;;1.00;1.00;;;;;3.35;69.16;101073.00;5080942;27;45327;-82
2021/12/03 02:37:50;;;;;;;;;0.00;0.00;;;;;3.36;69.03;101069.59;5081052;27;45305;-83
2021/12/03 02:40:16;;;;;;;;;1.50;0.75;;;;;3.53;69.04;101101.25;5080825;28;45496;-82
2021/12/03 02:42:43;;;;;;;;;0.00;0.00;;;;;3.59;68.77;101106.66;5083182;27;45424;-83
2021/12/03 02:45:10;;;;;;;;;1.00;1.00;;;;;3.45;68.51;101077.72;5084014;27;45264;-83
2021/12/03 02:47:36;;;;;;;;;3.00;1.00;;;;;3.60;68.59;101095.53;5084241;27;45403;-83
2021/12/03 02:50:04;;;;;;;;;0.75;0.00;;;;;3.29;68.88;101038.47;5082985;28;45465;-82
2021/12/03 02:52:29;;;;;;;;;3.00;0.00;;;;;3.35;68.86;101034.41;5084482;27;45365;-83
2021/12/03 02:54:55;;;;;;;;;0.75;0.25;;;;;3.35;68.27;101032.72;5083917;28;45869;-83
2021/12/03 02:57:20;;;;;;;;;1.75;1.00;;;;;3.64;68.85;101075.94;5083136;28;45252;-83
2021/12/03 02:59:46;;;;;;;;;1.00;1.00;;;;;3.98;68.38;101115.13;5084816;28;45344;-82
2021/12/03 03:02:11;;;;;;;;;2.00;2.00;;;;;3.88;68.48;101088.09;5084073;28;45476;-82
2021/12/03 03:04:37;;;;;;;;;1.00;1.00;;;;;3.62;68.70;101039.81;5081919;28;46166;-82
2021/12/03 03:07:02;;;;;;;;;1.25;1.00;;;;;4.16;68.49;101131.34;5084061;27;45350;-83
2021/12/03 03:09:31;;;;;;;;;1.00;0.00;;;;;3.66;68.53;101054.63;5083678;27;45377;-83
2021/12/03 03:11:56;;;;;;;;;0.50;0.25;;;;;3.66;67.78;101038.28;5084355;27;45519;-83
2021/12/03 03:14:21;;;;;;;;;0.00;0.00;;;;;3.55;67.75;101019.78;5082296;28;46015;-82
2021/12/03 03:16:47;;;;;;;;;2.25;1.25;;;;;4.01;67.73;101095.53;5083774;27;45494;-83
2021/12/03 03:19:17;;;;;;;;;0.00;0.00;;;;;4.11;68.03;101086.50;5083555;27;45409;-82
2021/12/03 03:21:44;;;;;;;;;0.50;0.50;;;;;4.38;67.51;101134.81;5084162;27;45314;-82
2021/12/03 03:24:10;;;;;;;;;0.00;0.00;;;;;3.82;67.85;101032.06;5083360;27;45527;-82
2021/12/03 03:26:38;;;;;;;;;0.00;0.00;;;;;3.65;67.88;101001.34;5083559;27;45403;-82
2021/12/03 03:29:06;;;;;;;;;0.00;0.00;;;;;4.55;68.14;101160.38;5082318;28;45407;-82
2021/12/03 03:31:32;;;;;;;;;0.00;0.00;;;;;3.86;67.87;101051.97;5085290;27;45309;-83
2021/12/03 03:33:58;;;;;;;;;0.00;0.00;;;;;4.10;68.07;101089.88;5102456;27;45334;-82
2021/12/03 03:36:24;;;;;;;;;1.00;1.00;;;;;3.81;67.74;101050.91;5103737;27;45311;-83
2021/12/03 03:38:49;;;;;;;;;0.00;0.00;;;;;4.53;67.35;101164.59;5103930;27;45389;-82
2021/12/03 03:41:15;;;;;;;;;0.00;0.00;;;;;3.72;68.01;101027.34;5104234;27;45688;-83
2021/12/03 03:43:41;;;;;;;;;1.00;1.00;;;;;4.15;67.84;101108.09;5103942;27;46264;-83
2021/12/03 03:46:06;;;;;;;;;0.00;0.00;;;;;3.67;67.49;101045.16;5103722;27;45502;-82
2021/12/03 03:48:33;;;;;;;;;1.00;0.00;;;;;3.76;67.34;101049.81;5103690;27;45412;-83
2021/12/03 03:50:59;;;;;;;;;0.00;0.00;;;;;3.70;67.40;101058.19;5104207;27;45591;-82
2021/12/03 03:53:24;;;;;;;;;0.00;0.00;;;;;3.24;67.95;100957.63;5101940;27;46824;-83
2021/12/03 03:55:50;;;;;;;;;0.00;0.00;;;;;3.34;67.77;100991.47;5103794;27;45319;-83
2021/12/03 03:58:15;;;;;;;;;0.25;0.25;;;;;3.60;67.74;101036.31;5085341;27;45451;-83
2021/12/03 04:00:43;;;;;;;;;0.25;0.25;;;;;3.66;67.59;101049.47;5083438;28;45577;-82
2021/12/03 04:03:09;;;;;;;;;0.00;0.00;;;;;3.21;67.44;100954.06;5082656;27;45354;-83
2021/12/03 04:05:35;;;;;;;;;0.00;0.00;;;;;3.13;67.99;100952.00;5082729;28;45433;-83
2021/12/03 04:08:00;;;;;;;;;0.00;0.00;;;;;3.51;67.61;101043.66;5082802;27;45460;-83
2021/12/03 04:10:26;;;;;;;;;0.00;0.00;;;;;3.34;67.24;100996.63;5083020;28;45420;-83
2021/12/03 04:12:52;;;;;;;;;0.00;0.00;;;;;3.03;68.13;100955.00;5082724;28;45636;-82
2021/12/03 04:15:18;;;;;;;;;0.00;0.00;;;;;3.58;67.35;101043.09;5083992;27;45457;-82
2021/12/03 04:17:44;;;;;;;;;0.00;0.00;;;;;3.64;67.88;101063.06;5088601;27;45370;-83
2021/12/03 04:20:12;;;;;;;;;0.00;0.00;;;;;3.80;67.55;101095.53;5082798;27;45396;-83
2021/12/03 04:22:38;;;;;;;;;1.00;1.00;;;;;3.53;68.11;101044.59;5082542;28;45400;-83
2021/12/03 04:25:06;;;;;;;;;0.00;0.00;;;;;3.48;67.90;101035.78;5069816;27;45543;-83
2021/12/03 04:27:32;;;;;;;;;0.00;0.00;;;;;3.49;67.32;101037.56;5068203;28;45345;-83
2021/12/03 04:29:58;;;;;;;;;0.00;0.00;;;;;4.02;68.46;101135.06;5062386;28;45292;-82
2021/12/03 04:32:25;;;;;;;;;1.00;0.00;;;;;4.01;68.12;101136.75;5079150;27;45600;-82
2021/12/03 04:34:51;;;;;;;;;0.00;0.00;;;;;3.97;67.51;101116.81;5102325;27;45316;-82
2021/12/03 04:37:17;;;;;;;;;0.00;0.00;;;;;3.57;67.38;101049.06;5102953;27;45371;-82
2021/12/03 04:39:42;;;;;;;;;1.75;1.75;;;;;3.73;67.99;101084.06;5076354;27;45470;-83
2021/12/03 04:42:08;;;;;;;;;0.00;0.00;;;;;3.33;67.50;101008.59;5063213;28;46426;-82
2021/12/03 04:44:35;;;;;;;;;0.00;0.00;;;;;3.77;67.67;101073.06;5082548;28;45294;-82
2021/12/03 04:47:01;;;;;;;;;0.00;0.00;;;;;4.16;67.63;101127.88;5065332;28;45413;-82
2021/12/03 04:49:27;;;;;;;;;0.00;0.00;;;;;4.21;67.04;101130.66;5062978;28;45381;-83
2021/12/03 04:51:54;;;;;;;;;0.00;0.00;;;;;4.05;67.69;101107.72;5067393;28;46225;-82
2021/12/03 04:54:20;;;;;;;;;0.00;0.00;;;;;3.24;66.89;100969.59;5076571;28;45752;-83
2021/12/03 04:56:46;;;;;;;;;0.00;0.00;;;;;4.00;67.35;101111.81;5089218;28;45485;-82
2021/12/03 04:59:11;;;;;;;;;0.00;0.00;;;;;3.48;67.49;101026.38;5082771;27;45630;-83
2021/12/03 05:01:38;;;;;;;;;0.00;0.00;;;;;4.12;67.22;101131.16;5077084;28;47440;-82
2021/12/03 05:04:04;;;;;;;;;0.00;0.00;;;;;4.14;66.86;101147.56;5080822;27;45349;-82
2021/12/03 05:06:31;;;;;;;;;1.50;1.00;;;;;3.97;67.23;101100.47;5081412;28;45327;-82
2021/12/03 05:08:57;;;;;;;;;0.00;0.00;;;;;4.11;67.61;101108.78;5081834;27;45350;-82
2021/12/03 05:11:22;;;;;;;;;0.00;0.00;;;;;4.21;67.09;101105.78;5068507;28;48180;-82
2021/12/03 05:13:48;;;;;;;;;0.00;0.00;;;;;4.16;67.03;101086.66;5061392;28;45506;-82
2021/12/03 05:16:13;;;;;;;;;0.00;0.00;;;;;4.24;66.92;101089.56;5061931;27;45461;-81
2021/12/03 05:18:44;;;;;;;;;0.00;0.00;;;;;4.36;67.35;101102.06;5059625;28;45445;-82
2021/12/03 05:21:09;;;;;;;;;0.00;0.00;;;;;3.86;66.44;101007.31;5070486;28;45518;-84
2021/12/03 05:23:34;;;;;;;;;0.00;0.00;;;;;3.64;66.80;100978.97;5077632;28;45334;-82
2021/12/03 05:26:00;;;;;;;;;0.00;0.00;;;;;4.42;67.04;101087.72;5071322;28;45471;-82
2021/12/03 05:28:27;;;;;;;;;0.00;0.00;;;;;4.30;66.40;101069.19;5074272;28;45476;-81
2021/12/03 05:30:53;;;;;;;;;0.00;0.00;;;;;3.92;66.54;101017.88;5070975;28;45413;-81
2021/12/03 05:33:19;;;;;;;;;0.00;0.00;;;;;4.44;66.24;101098.06;5086529;28;45448;-81
2021/12/03 05:35:45;;;;;;;;;0.00;0.00;;;;;3.68;66.10;100972.28;5093503;27;44913;-80
2021/12/03 05:38:11;;;;;;;;;0.75;0.00;;;;;3.78;66.35;100960.66;5075516;28;44710;-82
2021/12/03 05:40:37;;;;;;;;;0.00;0.00;;;;;4.33;65.69;101050.38;5062902;28;45282;-83
2021/12/03 05:43:03;;;;;;;;;0.00;0.00;;;;;3.73;66.14;100950.16;5061907;28;45347;-84
2021/12/03 05:45:31;;;;;;;;;0.00;0.00;;;;;4.12;66.49;101016.09;5061590;28;45307;-83
2021/12/03 05:47:57;;;;;;;;;0.00;0.00;;;;;4.33;66.28;101040.06;5061454;28;45329;-83
2021/12/03 05:50:23;;;;;;;;;0.00;0.00;;;;;4.34;66.21;101034.97;5062690;28;46360;-82
2021/12/03 05:52:50;;;;;;;;;0.75;0.75;;;;;4.56;65.66;101067.63;5072972;28;45318;-82
2021/12/03 05:55:15;;;;;;;;;0.00;0.00;;;;;3.93;65.94;100955.22;5074702;28;45425;-85
2021/12/03 05:57:42;;;;;;;;;0.00;0.00;;;;;3.71;65.72;100909.72;5070860;28;45411;-84
2021/12/03 06:00:15;;;;;;;;;0.00;0.00;;;;;4.43;65.84;101017.28;5068267;28;46472;-82
2021/12/03 06:02:40;;;;;;;;;4.75;1.00;;;;;4.67;65.94;101041.38;5071042;28;45338;-82
2021/12/03 06:05:06;;;;;;;;;1.25;0.00;;;;;4.59;65.43;101019.56;5076925;28;45480;-82
2021/12/03 06:07:31;;;;;;;;;0.00;0.00;;;;;4.79;65.84;101041.84;5081628;27;45485;-83
2021/12/03 06:09:57;;;;;;;;;0.00;0.00;;;;;4.52;65.58;100990.09;5079442;27;45303;-80
2021/12/03 06:12:22;;;;;;;;;0.00;0.00;;;;;4.60;65.37;101008.44;5072020;28;45332;-83
2021/12/03 06:14:47;;;;;;;;;0.00;0.00;;;;;4.72;65.68;101026.97;5082676;28;45561;-83
2021/12/03 06:17:13;;;;;;;;;0.00;0.00;;;;;4.59;65.95;100996.38;5080463;28;45289;-82
2021/12/03 06:19:40;;;;;;;;;0.00;0.00;;;;;4.71;65.28;101011.41;5069905;28;45307;-82
2021/12/03 06:22:06;;;;;;;;;0.00;0.00;;;;;4.68;65.59;101007.00;5072911;28;45400;-82
2021/12/03 06:24:31;;;;;;;;;0.00;0.00;;;;;4.91;65.35;101051.75;5069010;28;45382;-82
2021/12/03 06:26:56;;;;;;;;;0.00;0.00;;;;;4.89;65.36;101045.63;5069850;28;46515;-82
2021/12/03 06:29:22;;;;;;;;;0.00;0.00;;;;;4.81;64.97;101037.59;5073063;28;47109;-82
2021/12/03 06:31:47;;;;;;;;;0.00;0.00;;;;;4.92;65.09;101055.19;5076589;27;45418;-84
2021/12/03 06:34:13;;;;;;;;;0.00;0.00;;;;;4.55;64.44;101013.41;5084543;28;45417;-83
2021/12/03 06:36:38;;;;;;;;;0.00;0.00;;;;;4.49;65.34;101001.16;5085270;28;45724;-82
2021/12/03 06:39:04;;;;;;;;;0.00;0.00;;;;;4.81;65.07;101049.63;5063838;28;46436;-82
2021/12/03 06:41:29;;;;;;;;;0.75;0.00;;;;;4.62;65.11;101033.44;5082975;27;45792;-85
2021/12/03 06:43:55;;;;;;;;;0.00;0.00;;;;;4.54;64.84;101006.50;5082553;28;45817;-85
2021/12/03 06:46:20;;;;;;;;;0.00;0.00;;;;;4.39;64.50;100976.75;5085863;28;45411;-85
2021/12/03 06:48:45;;;;;;;;;0.00;0.00;;;;;4.42;64.52;100982.03;5085102;28;45828;-84
2021/12/03 06:51:51;;;;;;;;;0.00;0.00;;;;;4.85;64.55;101048.03;5082516;28;45303;-87
2021/12/03 06:54:24;;;;;;;;;2.00;0.00;;;;;3.92;64.13;100920.84;5030129;28;45516;-86
2021/12/03 06:56:52;;;;;;;;;0.50;0.00;;;;;3.90;64.89;100908.75;5079432;28;45370;-83
2021/12/03 06:59:19;;;;;;;;;0.00;0.00;;;;;4.61;64.88;101023.97;5063201;28;47097;-86
2021/12/03 07:01:44;;;;;;;;;0.00;0.00;;;;;4.26;65.11;100969.38;5077640;27;45499;-84
2021/12/03 07:04:11;;;;;;;;;0.00;0.00;;;;;4.44;65.12;101002.69;5077399;28;45349;-85
2021/12/03 07:06:36;;;;;;;;;0.00;0.00;;;;;4.45;64.62;100986.41;5071897;27;45422;-82
2021/12/03 07:09:03;;;;;;;;;0.00;0.00;;;;;4.46;64.85;101013.94;5075159;28;46088;-86
2021/12/03 07:11:29;;;;;;;;;0.00;0.00;;;;;4.76;64.75;101046.88;5082142;28;45402;-82
2021/12/03 07:13:54;;;;;;;;;0.00;0.00;;;;;4.73;64.40;101039.03;5078746;28;45444;-83
2021/12/03 07:16:20;;;;;;;;;0.00;0.00;;;;;4.55;64.31;101022.03;5069762;28;45748;-82
2021/12/03 07:18:45;;;;;;;;;0.00;0.00;;;;;3.89;64.93;100900.13;5083679;28;45310;-85
2021/12/03 07:21:11;;;;;;;;;0.00;0.00;;;;;4.33;64.59;100965.31;5074746;28;45294;-83
2021/12/03 07:23:37;;;;;;;;;0.00;0.00;;;;;4.47;64.82;100997.66;5076063;28;45508;-81
2021/12/03 07:26:02;;;;;;;;;0.00;0.00;;;;;4.61;64.66;101031.69;5080851;28;45702;-82
2021/12/03 07:28:29;;;;;;;;;0.00;0.00;;;;;3.91;64.53;100916.53;5080460;28;45342;-80
2021/12/03 07:30:55;;;;;;;;;0.00;0.00;;;;;4.54;65.11;101035.72;5078582;28;45436;-79
2021/12/03 07:33:21;;;;;;;;;0.00;0.00;;;;;4.24;64.99;100995.06;5095176;27;45404;-80
2021/12/03 07:35:47;;;;;;;;;0.00;0.00;;;;;3.46;64.46;100849.53;5103458;27;45442;-80
2021/12/03 07:38:15;;;;;;;;;1.00;0.00;;;;;3.87;65.03;100932.69;5104003;27;45692;-81
2021/12/03 07:40:42;;;;;;;;;0.00;0.00;;;;;4.03;65.64;100959.94;5103190;27;45763;-81
2021/12/03 07:43:08;;;;;;;;;0.25;0.25;;;;;4.44;65.12;101031.94;5080772;28;45696;-81
2021/12/03 07:45:34;;;;;;;;;1.00;1.00;;;;;4.40;65.59;101032.63;5081246;28;45408;-82
2021/12/03 07:47:59;;;;;;;;;0.00;0.00;;;;;4.37;65.03;101036.78;5080773;28;45989;-81
2021/12/03 07:50:25;;;;;;;;;0.00;0.00;;;;;4.35;64.94;101041.88;5082294;28;45296;-81
2021/12/03 07:52:50;;;;;;;;;0.00;0.00;;;;;4.40;65.00;101034.31;5078821;28;45278;-81
2021/12/03 07:55:16;;;;;;;;;0.00;0.00;;;;;4.43;65.41;101031.88;5062303;28;45362;-80
2021/12/03 07:57:41;;;;;;;;;0.00;0.00;;;;;3.89;65.29;100949.06;5061785;28;45362;-80
2021/12/03 08:00:08;;;;;;;;;0.00;0.00;;;;;4.28;65.27;101020.16;5061697;28;45580;-81
2021/12/03 08:02:33;;;;;;;;;0.00;0.00;;;;;4.15;65.02;100993.03;5062977;27;45396;-81
2021/12/03 08:04:59;;;;;;;;;0.00;0.00;;;;;4.31;65.39;101021.97;5080557;28;45317;-82
2021/12/03 08:07:24;;;;;;;;;0.00;0.00;;;;;4.24;64.95;101004.50;5070714;28;47279;-84
2021/12/03 08:09:50;;;;;;;;;0.00;0.00;;;;;4.31;64.90;101011.66;5073962;27;45644;-84
2021/12/03 08:12:15;;;;;;;;;0.00;0.00;;;;;4.44;64.88;101034.50;5082829;27;45952;-82
2021/12/03 08:14:41;;;;;;;;;0.00;0.00;;;;;4.10;65.06;100970.47;5076340;27;45248;-82
2021/12/03 08:17:06;;;;;;;;;0.00;0.00;;;;;4.41;64.91;101015.47;5075171;27;46133;-83
2021/12/03 08:19:32;;;;;;;;;0.00;0.00;;;;;4.23;64.84;100971.81;5084489;27;45509;-83
2021/12/03 08:21:57;;;;;;;;;0.00;0.00;;;;;3.87;64.43;100906.03;5082812;27;45401;-83
2021/12/03 08:24:22;;;;;;;;;1.75;0.00;;;;;4.53;64.75;101020.19;5086459;27;45363;-82
2021/12/03 08:26:48;;;;;;;;;0.00;0.00;;;;;4.52;64.10;101021.91;5073942;27;45730;-83
2021/12/03 08:29:14;;;;;;;;;0.00;0.00;;;;;4.54;63.97;101011.66;5081483;27;45409;-83
2021/12/03 08:31:40;;;;;;;;;0.00;0.00;;;;;4.33;64.78;100971.34;5079761;27;45548;-82
2021/12/03 08:34:06;;;;;;;;;0.00;0.00;;;;;4.47;64.81;100995.06;5077983;27;45599;-82
2021/12/03 08:36:32;;;;;;;;;0.00;0.00;;;;;4.61;63.74;101005.03;5079885;27;45510;-84
2021/12/03 08:38:57;;;;;;;;;0.00;0.00;;;;;4.64;63.68;101016.34;5075344;27;45474;-80
2021/12/03 08:41:23;;;;;;;;;0.00;0.00;;;;;4.56;64.05;101005.72;5073753;27;45451;-82
2021/12/03 08:43:49;;;;;;;;;0.00;0.00;;;;;4.69;63.76;101021.69;5083330;27;45342;-84
2021/12/03 08:46:30;;;;;;;;;1.00;0.00;;;;;4.59;64.20;101012.69;5078725;27;45429;-81
2021/12/03 08:49:05;;;;;;;;;0.00;0.00;;;;;4.53;63.32;101009.88;5076236;27;45536;-80
2021/12/03 08:52:05;;;;;;;;;0.00;0.00;;;;;4.71;63.31;101029.47;5076091;27;45452;-80
2021/12/03 08:57:00;;;;;;;;;0.00;0.00;;;;;4.53;63.28;100978.94;5074235;27;45543;-80
2021/12/03 08:59:26;;;;;;;;;0.00;0.00;;;;;4.63;63.64;100987.91;5078206;27;45494;-83
2021/12/03 09:01:51;;;;;;;;;0.00;0.00;;;;;4.74;63.30;101002.09;5076856;27;45403;-82
2021/12/03 09:04:17;;;;;;;;;0.00;0.00;;;;;4.88;63.45;101025.81;5079328;27;45418;-82
2021/12/03 09:06:42;;;;;;;;;0.75;0.00;;;;;4.79;63.25;101013.47;5086725;27;46129;-81
2021/12/03 09:09:08;;;;;;;;;0.00;0.00;;;;;4.72;63.02;101029.53;5083830;27;45484;-81
2021/12/03 09:11:38;;;;;;;;;0.25;0.00;;;;;4.57;63.54;100994.59;5085962;27;45565;-82
2021/12/03 09:14:13;;;;;;;;;0.00;0.00;;;;;4.74;63.60;101012.41;5080242;27;45418;-82
2021/12/03 09:16:39;;;;;;;;;0.00;0.00;;;;;4.79;63.23;101008.31;5081862;27;45732;-82
2021/12/03 09:19:11;;;;;;;;;0.00;0.00;;;;;4.23;63.67;100918.56;5083297;27;45666;-82
2021/12/03 09:21:37;;;;;;;;;0.00;0.00;;;;;4.80;63.70;101007.47;5077239;27;45571;-82
2021/12/03 09:26:28;;;;;;;;;1.00;0.00;;;;;4.49;63.16;100954.75;5081774;27;45438;-82
2021/12/03 09:29:07;;;;;;;;;0.00;0.00;;;;;4.69;63.75;100985.56;5080276;27;45279;-82
2021/12/03 09:31:35;;;;;;;;;0.00;0.00;;;;;4.90;64.39;101006.09;5080553;27;45652;-83
2021/12/03 09:34:01;;;;;;;;;0.00;0.00;;;;;4.64;64.04;100961.31;5081071;27;45365;-82
2021/12/03 09:36:26;;;;;;;;;0.00;0.00;;;;;4.49;64.69;100946.13;5083000;27;45888;-81
2021/12/03 09:38:51;;;;;;;;;0.00;0.00;;;;;4.54;64.73;100965.25;5075171;27;45287;-81
2021/12/03 09:41:20;;;;;;;;;0.00;0.00;;;;;4.64;64.64;100990.56;5083834;27;45194;-81
2021/12/03 09:43:53;;;;;;;;;0.00;0.00;;;;;4.69;65.56;100993.31;5080434;27;45675;-81
2021/12/03 09:46:22;;;;;;;;;1.00;1.00;;;;;4.55;65.19;100949.84;5077391;27;47158;-82
2021/12/03 09:51:16;;;;;;;;;0.00;0.00;;;;;4.55;65.13;100931.78;5086819;27;45303;-81
2021/12/03 09:56:27;;;;;;;;;0.00;0.00;;;;;4.79;65.90;100967.03;5093697;27;45522;-81
2021/12/03 10:01:42;;;;;;;;;0.00;0.00;;;;;4.84;66.30;100976.63;5077864;27;45407;-81
2021/12/03 10:04:30;;;;;;;;;0.00;0.00;;;;;4.64;66.00;100943.25;5074629;27;45589;-81
2021/12/03 10:12:56;;;;;;;;;2.00;0.00;;;;;4.67;67.39;100971.72;5075548;27;45476;-81
2021/12/03 10:15:35;;;;;;;;;0.00;0.00;;;;;4.12;67.51;100888.94;5092029;27;45426;-81
2021/12/03 10:18:09;;;;;;;;;1.00;1.00;;;;;3.83;68.79;100847.50;5084721;27;46183;-81
2021/12/03 10:21:14;;;;;;;;;0.00;0.00;;;;;4.56;68.04;100959.31;5075645;27;45543;-82
2021/12/03 10:32:19;;;;;;;;;0.00;0.00;;;;;4.52;68.74;100907.56;5089354;27;45273;-83
2021/12/03 10:40:56;;;;;;;;;0.00;0.00;;;;;4.30;69.30;100856.13;5042345;27;45922;-82
2021/12/03 10:48:51;;;;;;;;;0.00;0.00;;;;;4.66;69.95;100895.19;5085187;27;45425;-84
2021/12/03 10:54:24;;;;;;;;;0.00;0.00;;;;;4.45;70.39;100860.09;5047648;27;45430;-84
2021/12/03 11:30:17;;;;;;;;;0.00;0.00;;;;;4.13;72.18;100795.34;5057131;27;45816;-82
2021/12/03 13:33:00;;;;;;;;;0.00;0.00;;;;;4.28;75.65;100600.03;5070536;27;45440;-81
2021/12/03 14:43:08;;;;;;;;;1.50;0.00;;;;;4.32;76.70;100448.97;5086456;27;45608;-82
2021/12/03 14:51:02;;;;;;;;;0.00;0.00;;;;;4.28;76.39;100429.94;5082402;28;45334;-82
2021/12/03 14:53:54;;;;;;;;;1.00;0.00;;;;;4.53;76.79;100468.44;5078542;27;45504;-81
2021/12/03 14:56:23;;;;;;;;;0.00;0.00;;;;;4.50;77.01;100446.03;5083357;27;45397;-82
2021/12/03 14:59:16;;;;;;;;;0.50;0.50;;;;;4.59;77.11;100445.41;5081990;27;45475;-82
2021/12/03 15:09:34;;;;;;;;;0.00;0.00;;;;;4.74;77.09;100436.38;5084850;27;45559;-84
2021/12/03 15:25:36;;;;;;;;;0.00;0.00;;;;;4.68;76.90;100414.75;5085253;27;45422;-83
2021/12/03 15:31:01;;;;;;;;;0.00;0.00;;;;;4.88;76.18;100427.31;5088234;27;45765;-86
2021/12/03 15:33:36;;;;;;;;;0.00;0.00;;;;;4.89;77.05;100428.19;5075297;27;45498;-81
2021/12/03 15:36:08;;;;;;;;;0.00;0.00;;;;;4.74;76.83;100411.47;5081585;27;46110;-81
2021/12/03 15:57:19;;;;;;;;;0.00;0.00;;;;;4.77;77.40;100366.81;5081359;27;45735;-81
2021/12/03 16:08:04;;;;;;;;;0.00;0.00;;;;;4.84;77.05;100353.25;5080335;27;46124;-83
2021/12/03 16:10:41;;;;;;;;;0.00;0.00;;;;;4.89;77.01;100346.50;5077825;27;45611;-82
2021/12/03 16:16:28;;;;;;;;;0.75;0.50;;;;;4.97;77.51;100357.03;5073462;27;45272;-82
2021/12/03 16:53:39;;;;;;;;;0.00;0.00;;;;;5.15;77.58;100279.19;4996757;28;45496;-78
2021/12/03 16:56:48;;;;;;;;;0.00;0.00;;;;;5.09;77.81;100270.44;5025954;28;45329;-81
2021/12/03 16:58:55;;;;;;;;;0.00;0.00;;;;;5.04;78.04;100265.16;5058459;28;45239;-79
2021/12/03 17:01:27;;;;;;;;;0.25;0.00;;;;;4.84;77.48;100218.28;5076698;27;45474;-79
2021/12/03 17:04:06;;;;;;;;;0.00;0.00;;;;;5.04;78.20;100252.28;5089760;27;45550;-81
2021/12/03 17:31:07;;;;;;;;;0.00;0.00;;;;;5.05;79.02;100233.38;5082025;28;45238;-81
2021/12/03 18:00:05;;;;;;;;;0.00;0.00;;;;;4.92;79.08;100160.88;5066808;28;45520;-79
2021/12/03 18:02:37;;;;;;;;;0.00;0.00;;;;;5.06;78.92;100175.78;5077907;27;45397;-80
2021/12/03 18:05:24;;;;;;;;;1.00;0.00;;;;;5.08;78.95;100163.78;5078284;27;45446;-80
2021/12/03 18:16:03;;;;;;;;;2.00;0.00;;;;;4.93;79.33;100117.88;5078406;27;45909;-79
2021/12/03 18:53:23;;;;;;;;;0.25;0.25;;;;;5.26;80.01;100079.84;5072950;28;45472;-83
2021/12/03 18:56:00;;;;;;;;;0.00;0.00;;;;;5.22;80.08;100070.28;5071110;28;45499;-80
2021/12/03 18:58:28;;;;;;;;;0.00;0.00;;;;;5.30;80.32;100069.59;5075771;28;45478;-80
2021/12/03 19:00:55;;;;;;;;;0.00;0.00;;;;;5.25;80.40;100054.88;5072827;28;45348;-80
2021/12/03 19:11:25;;;;;;;;;0.25;0.25;;;;;5.43;80.50;100060.38;5069410;28;45334;-80
2021/12/03 19:13:51;;;;;;;;;0.00;0.00;;;;;5.47;80.53;100056.16;5071501;28;45290;-80
2021/12/03 19:16:21;;;;;;;;;1.00;0.75;;;;;5.30;80.24;100020.56;5074477;28;45533;-80